Time;durP1;ratioP1;P1;durP2;ratioP2;P2;SDS_P1;SDS_P2;PMS_P1;PMS_P2;Temp;Humidity;BMP_temperature;BMP_pressure;BME280_temperature;BME280_humidity;BME280_pressure;Samples;Min_cycle;Max_cycle;Signal;HPM_P1;HPM_P2
2022/06/13 00:01:57;;;;;;;6.17;4.00;;;13.00;99.90;;;;;;5054934;28;20194;-71
2022/06/13 00:04:23;;;;;;;7.77;4.30;;;12.90;99.90;;;;;;5053847;28;20296;-71
2022/06/13 00:06:48;;;;;;;7.47;5.03;;;12.90;99.90;;;;;;5054077;28;20195;-71
2022/06/13 00:09:14;;;;;;;7.47;4.30;;;12.90;99.90;;;;;;5054651;28;20223;-73
2022/06/13 00:11:40;;;;;;;4.73;4.10;;;12.90;99.90;;;;;;5053671;28;20612;-71
2022/06/13 00:14:07;;;;;;;6.00;3.23;;;12.90;99.90;;;;;;5053819;28;20398;-71
2022/06/13 00:16:32;;;;;;;7.23;3.93;;;12.80;99.90;;;;;;5053794;28;20404;-71
2022/06/13 00:18:58;;;;;;;5.80;4.30;;;12.80;99.90;;;;;;5054497;28;20928;-73
2022/06/13 00:21:31;;;;;;;11.80;5.10;;;12.90;99.90;;;;;;5054705;28;20440;-73
2022/06/13 00:23:58;;;;;;;6.50;4.00;;;12.90;99.90;;;;;;5054596;28;20163;-70
2022/06/13 00:26:26;;;;;;;9.93;4.43;;;12.90;99.90;;;;;;5053226;28;20429;-73
2022/06/13 00:28:53;;;;;;;11.53;4.30;;;12.90;99.90;;;;;;5053833;28;20414;-72
2022/06/13 00:31:19;;;;;;;8.97;4.80;;;12.80;99.90;;;;;;5054388;28;20427;-73
2022/06/13 00:33:45;;;;;;;5.73;4.40;;;12.70;99.90;;;;;;5053416;28;20383;-71
2022/06/13 00:36:11;;;;;;;7.90;4.87;;;12.50;99.90;;;;;;5054263;28;20559;-73
2022/06/13 00:38:38;;;;;;;6.77;4.50;;;12.50;99.90;;;;;;5053550;28;20425;-71
2022/06/13 00:41:12;;;;;;;12.13;4.37;;;12.60;99.90;;;;;;5052985;28;20460;-73
2022/06/13 00:43:39;;;;;;;13.07;5.20;;;12.60;99.90;;;;;;5054114;28;20792;-71
2022/06/13 00:46:17;;;;;;;7.47;4.23;;;12.60;99.90;;;;;;5054305;28;20389;-71
2022/06/13 00:48:43;;;;;;;12.53;5.27;;;12.60;99.90;;;;;;5053400;28;20783;-73
2022/06/13 00:51:09;;;;;;;6.90;4.80;;;12.50;99.90;;;;;;5053135;28;20507;-73
2022/06/13 00:53:36;;;;;;;7.00;5.10;;;12.50;99.90;;;;;;5035226;28;20486;-71
2022/06/13 00:56:09;;;;;;;4.43;4.03;;;12.50;99.90;;;;;;5054001;28;20162;-73
2022/06/13 00:58:39;;;;;;;8.63;5.20;;;12.50;99.90;;;;;;5053043;28;20465;-73
2022/06/13 01:01:05;;;;;;;7.43;3.83;;;12.50;99.90;;;;;;5036129;28;20441;-73
2022/06/13 01:03:33;;;;;;;7.80;5.57;;;12.50;99.90;;;;;;5053772;28;20384;-71
2022/06/13 01:06:01;;;;;;;7.00;3.83;;;12.50;99.90;;;;;;5053706;28;20452;-72
2022/06/13 01:08:32;;;;;;;16.57;5.20;;;12.40;99.90;;;;;;5033575;28;21050;-73
2022/06/13 01:11:17;;;;;;;13.00;5.97;;;12.40;99.90;;;;;;5052852;28;20445;-71
2022/06/13 01:13:56;;;;;;;10.60;3.97;;;12.40;99.90;;;;;;5053538;28;20959;-71
2022/06/13 01:16:40;;;;;;;7.50;4.73;;;12.40;99.90;;;;;;5053279;28;20401;-72
2022/06/13 01:19:15;;;;;;;14.00;4.70;;;12.50;99.90;;;;;;5053399;28;20947;-72
2022/06/13 01:22:22;;;;;;;12.13;5.50;;;12.40;99.90;;;;;;5052270;28;20399;-71
2022/06/13 01:25:06;;;;;;;9.73;4.63;;;12.40;99.90;;;;;;5053577;28;20768;-75
2022/06/13 01:28:07;;;;;;;7.83;4.50;;;12.40;99.90;;;;;;5048954;28;20407;-72
2022/06/13 01:31:29;;;;;;;9.43;4.70;;;12.30;99.90;;;;;;4972435;28;20542;-71
2022/06/13 01:34:33;;;;;;;6.73;3.57;;;12.20;99.90;;;;;;4981543;28;20949;-71
2022/06/13 01:37:02;;;;;;;6.40;4.43;;;12.20;99.90;;;;;;5048862;28;20765;-72
2022/06/13 01:39:27;;;;;;;12.23;4.70;;;12.30;99.90;;;;;;5053156;28;20408;-74
2022/06/13 01:42:08;;;;;;;9.63;5.63;;;12.20;99.90;;;;;;5053105;28;20477;-73
2022/06/13 01:44:42;;;;;;;9.63;4.60;;;12.10;99.90;;;;;;5052820;28;20167;-75
2022/06/13 01:47:45;;;;;;;8.97;4.30;;;12.20;99.90;;;;;;5051748;28;20433;-74
2022/06/13 01:50:24;;;;;;;10.80;4.20;;;12.30;99.90;;;;;;5052049;28;20871;-75
2022/06/13 01:53:22;;;;;;;7.13;4.70;;;12.30;99.90;;;;;;5053164;28;20397;-73
2022/06/13 01:55:55;;;;;;;9.90;4.13;;;12.30;99.90;;;;;;5048824;28;20456;-75
2022/06/13 01:58:44;;;;;;;14.10;4.87;;;12.30;99.90;;;;;;5052090;28;20422;-73
2022/06/13 02:01:29;;;;;;;8.33;4.70;;;12.30;99.90;;;;;;5052936;28;20468;-75
2022/06/13 02:04:04;;;;;;;12.37;4.50;;;12.30;99.90;;;;;;5050914;28;20421;-75
2022/06/13 02:06:34;;;;;;;10.13;4.70;;;12.40;99.90;;;;;;5051993;28;20414;-73
2022/06/13 02:09:07;;;;;;;9.77;4.70;;;12.40;99.90;;;;;;5052801;28;20935;-73
2022/06/13 02:11:43;;;;;;;8.40;4.30;;;12.40;99.90;;;;;;5052937;28;20922;-73
2022/06/13 02:14:38;;;;;;;5.03;4.10;;;12.40;99.90;;;;;;5052920;28;20868;-72
2022/06/13 02:17:10;;;;;;;8.10;4.63;;;12.40;99.90;;;;;;5050708;28;20438;-72
2022/06/13 02:19:38;;;;;;;11.33;4.57;;;12.40;99.90;;;;;;5051458;28;20469;-74
2022/06/13 02:22:38;;;;;;;9.43;4.17;;;12.30;99.90;;;;;;5053053;28;20410;-73
2022/06/13 02:25:18;;;;;;;13.13;5.40;;;12.30;99.90;;;;;;5056771;28;20463;-73
2022/06/13 02:27:50;;;;;;;8.83;4.53;;;12.30;99.90;;;;;;5055730;28;20937;-75
2022/06/13 02:30:19;;;;;;;12.50;4.60;;;12.40;99.90;;;;;;5056583;28;20427;-71
2022/06/13 02:32:57;;;;;;;9.33;4.10;;;12.30;99.90;;;;;;5055626;28;20559;-73
2022/06/13 02:35:48;;;;;;;8.67;4.20;;;12.30;99.90;;;;;;5056838;28;20429;-71
2022/06/13 02:38:39;;;;;;;15.27;5.03;;;12.30;99.90;;;;;;5055538;28;20880;-73
2022/06/13 02:41:08;;;;;;;8.30;4.60;;;12.30;99.90;;;;;;5055692;28;20401;-73
2022/06/13 02:43:56;;;;;;;13.77;4.30;;;12.30;99.90;;;;;;5056502;28;20380;-72
2022/06/13 02:46:30;;;;;;;11.37;5.17;;;12.40;99.90;;;;;;5055126;28;20431;-73
2022/06/13 02:49:08;;;;;;;6.90;4.60;;;12.40;99.90;;;;;;5056207;28;20440;-73
2022/06/13 02:51:48;;;;;;;11.40;3.77;;;12.40;99.90;;;;;;5056293;28;20840;-72
2022/06/13 02:54:30;;;;;;;12.13;4.60;;;12.40;99.90;;;;;;5056077;28;20471;-72
2022/06/13 02:57:27;;;;;;;8.53;5.07;;;12.40;99.90;;;;;;5055271;28;20376;-71
2022/06/13 03:00:34;;;;;;;7.40;4.93;;;12.50;99.90;;;;;;5054231;28;20423;-71
2022/06/13 03:03:02;;;;;;;8.50;4.53;;;12.50;99.90;;;;;;5045424;28;20392;-69
2022/06/13 03:05:33;;;;;;;7.00;4.33;;;12.50;99.90;;;;;;5056199;28;20401;-75
2022/06/13 03:08:29;;;;;;;4.73;4.23;;;12.40;99.90;;;;;;5055080;28;20380;-74
2022/06/13 03:11:22;;;;;;;9.30;4.83;;;12.40;99.90;;;;;;5045013;28;20465;-71
2022/06/13 03:14:11;;;;;;;9.20;4.00;;;12.40;99.90;;;;;;5036668;28;20392;-71
2022/06/13 03:17:02;;;;;;;14.53;4.87;;;12.40;99.90;;;;;;5054212;28;20407;-73
2022/06/13 03:20:06;;;;;;;9.27;5.07;;;12.50;99.90;;;;;;5055809;28;20400;-73
2022/06/13 03:23:02;;;;;;;8.03;4.67;;;12.50;99.90;;;;;;5049814;28;20396;-70
2022/06/13 03:25:47;;;;;;;16.23;4.70;;;12.50;99.90;;;;;;5055345;28;20388;-71
2022/06/13 03:28:21;;;;;;;8.30;3.90;;;12.30;99.90;;;;;;5053499;28;20544;-69
2022/06/13 03:30:53;;;;;;;8.30;3.80;;;12.40;99.90;;;;;;5055549;28;20448;-73
2022/06/13 03:33:42;;;;;;;6.43;3.80;;;12.30;99.90;;;;;;5037033;28;20390;-71
2022/06/13 03:36:21;;;;;;;5.43;3.27;;;12.30;99.90;;;;;;5055045;28;20770;-72
2022/06/13 03:39:12;;;;;;;12.30;4.40;;;12.20;99.90;;;;;;5054725;28;20399;-73
2022/06/13 03:41:44;;;;;;;5.73;3.57;;;12.20;99.90;;;;;;5055329;28;20876;-73
2022/06/13 03:44:28;;;;;;;5.07;3.37;;;12.20;1.00;;;;;;5054218;28;20408;-71
2022/06/13 03:46:59;;;;;;;6.13;3.70;;;12.10;1.00;;;;;;5054359;28;20511;-73
2022/06/13 03:49:46;;;;;;;3.77;3.30;;;12.10;1.00;;;;;;5055203;28;20448;-72
2022/06/13 03:52:13;;;;;;;13.37;3.60;;;12.00;1.00;;;;;;5055244;28;20387;-70
2022/06/13 03:54:45;;;;;;;8.00;3.20;;;12.10;1.00;;;;;;5054477;28;20368;-71
2022/06/13 03:57:31;;;;;;;15.10;3.87;;;12.10;1.00;;;;;;5053156;28;20473;-70
2022/06/13 04:00:11;;;;;;;3.90;3.53;;;12.10;1.00;;;;;;5054978;28;20401;-70
2022/06/13 04:02:40;;;;;;;3.70;2.83;;;12.20;1.00;;;;;;5055040;28;20401;-70
2022/06/13 04:05:14;;;;;;;8.03;3.80;;;12.20;1.00;;;;;;5054916;28;20769;-72
2022/06/13 04:07:41;;;;;;;4.40;3.20;;;12.30;1.00;;;;;;5054010;28;20381;-70
2022/06/13 04:10:10;;;;;;;4.70;4.30;;;12.40;1.00;;;;;;5053996;28;20445;-73
2022/06/13 04:12:58;;;;;;;3.50;3.20;;;12.50;1.00;;;;;;5053266;28;20426;-70
2022/06/13 04:15:46;;;;;;;8.90;2.87;;;12.60;1.00;;;;;;5054878;28;20869;-70
2022/06/13 04:18:53;;;;;;;3.83;2.90;;;12.60;1.00;;;;;;5053780;28;20948;-72
2022/06/13 04:21:28;;;;;;;4.10;3.60;;;12.60;1.00;;;;;;5054658;28;20405;-72
2022/06/13 04:24:00;;;;;;;3.40;3.10;;;12.50;1.00;;;;;;5054584;28;20408;-72
2022/06/13 04:26:32;;;;;;;6.20;3.20;;;12.60;1.00;;;;;;5053255;28;20429;-73
2022/06/13 04:29:11;;;;;;;4.33;2.90;;;12.60;1.00;;;;;;5054277;28;20836;-72
2022/06/13 04:31:38;;;;;;;8.70;3.10;;;12.60;1.00;;;;;;5054106;28;20865;-72
2022/06/13 04:34:12;;;;;;;4.13;2.80;;;12.60;1.00;;;;;;5036075;28;20730;-72
2022/06/13 04:36:39;;;;;;;5.10;2.77;;;12.60;1.00;;;;;;5053425;28;20848;-72
2022/06/13 04:39:08;;;;;;;3.07;2.87;;;12.70;1.00;;;;;;5053991;28;20396;-72
2022/06/13 04:41:39;;;;;;;5.80;2.87;;;12.70;1.00;;;;;;5052999;28;20418;-70
2022/06/13 04:44:06;;;;;;;3.63;3.00;;;12.60;1.00;;;;;;5054266;28;20372;-71
2022/06/13 04:46:35;;;;;;;5.10;2.77;;;12.50;1.00;;;;;;5053213;28;20771;-73
2022/06/13 04:49:06;;;;;;;9.43;3.37;;;12.40;1.00;;;;;;5053474;28;20433;-72
2022/06/13 04:51:39;;;;;;;5.40;3.00;;;12.40;1.00;;;;;;5053669;28;20461;-72
2022/06/13 04:54:11;;;;;;;6.53;3.10;;;12.40;1.00;;;;;;5054172;28;20364;-72
2022/06/13 04:56:37;;;;;;;4.37;3.87;;;12.30;1.00;;;;;;5053107;28;20368;-70
2022/06/13 04:59:04;;;;;;;4.10;3.13;;;12.40;1.00;;;;;;5052671;28;20452;-71
2022/06/13 05:01:40;;;;;;;8.43;3.20;;;12.50;1.00;;;;;;5053917;28;20380;-71
2022/06/13 05:04:10;;;;;;;4.90;2.70;;;12.50;1.00;;;;;;5053875;28;20488;-73
2022/06/13 05:06:43;;;;;;;3.63;2.93;;;12.40;1.00;;;;;;5052206;28;20383;-72
2022/06/13 05:09:23;;;;;;;5.03;3.20;;;12.30;1.00;;;;;;5051248;28;20424;-71
2022/06/13 05:11:55;;;;;;;4.50;3.00;;;12.20;1.00;;;;;;5051349;28;20405;-73
2022/06/13 05:14:30;;;;;;;3.07;2.77;;;12.20;1.00;;;;;;5053623;28;20857;-73
2022/06/13 05:17:01;;;;;;;5.67;3.10;;;12.20;1.00;;;;;;5052614;28;20372;-73
2022/06/13 05:19:53;;;;;;;4.90;3.03;;;12.10;1.00;;;;;;5053327;28;20388;-71
2022/06/13 05:22:46;;;;;;;3.37;3.17;;;12.10;1.00;;;;;;5053539;28;20379;-73
2022/06/13 05:25:40;;;;;;;4.27;3.87;;;12.20;1.00;;;;;;5051927;28;20454;-73
2022/06/13 05:28:07;;;;;;;5.77;3.63;;;12.20;1.00;;;;;;5051220;28;20426;-73
2022/06/13 05:30:32;;;;;;;9.77;4.13;;;12.20;1.00;;;;;;5053207;28;20427;-72
2022/06/13 05:32:58;;;;;;;9.80;4.13;;;12.30;1.00;;;;;;5053280;28;20401;-73
2022/06/13 05:35:31;;;;;;;4.77;3.77;;;12.30;1.00;;;;;;5053233;28;20167;-73
2022/06/13 05:38:00;;;;;;;4.27;3.73;;;12.50;1.00;;;;;;5052310;28;20632;-72
2022/06/13 05:40:26;;;;;;;5.10;4.00;;;12.50;1.00;;;;;;5051996;28;20393;-71
2022/06/13 05:42:52;;;;;;;6.60;4.23;;;12.60;1.00;;;;;;5052388;28;20484;-72
2022/06/13 05:45:20;;;;;;;8.50;4.90;;;12.70;1.00;;;;;;5052905;28;20209;-71
2022/06/13 05:47:48;;;;;;;6.83;4.63;;;12.80;1.00;;;;;;5051905;28;20166;-73
2022/06/13 05:50:15;;;;;;;16.27;5.43;;;13.00;1.00;;;;;;5053009;28;20464;-72
2022/06/13 05:52:42;;;;;;;12.30;5.27;;;13.10;1.00;;;;;;5053174;28;20422;-73
2022/06/13 05:55:08;;;;;;;6.93;5.00;;;13.20;1.00;;;;;;5053018;28;20383;-74
2022/06/13 05:57:34;;;;;;;11.07;5.03;;;13.30;1.00;;;;;;5050332;28;20538;-71
2022/06/13 06:00:00;;;;;;;10.47;4.57;;;13.30;1.00;;;;;;5052993;28;20847;-73
2022/06/13 06:02:25;;;;;;;5.70;5.00;;;13.40;1.00;;;;;;5051990;28;20527;-69
2022/06/13 06:04:52;;;;;;;8.40;4.90;;;13.50;1.00;;;;;;5035383;28;20682;-69
2022/06/13 06:07:17;;;;;;;10.77;5.23;;;13.50;1.00;;;;;;5051980;28;20189;-70
2022/06/13 06:09:43;;;;;;;5.93;5.10;;;13.50;1.00;;;;;;5033923;28;20461;-71
2022/06/13 06:12:09;;;;;;;6.50;5.03;;;13.50;1.00;;;;;;5035038;28;20163;-71
2022/06/13 06:14:35;;;;;;;6.70;5.30;;;13.50;1.00;;;;;;5052832;28;20163;-71
2022/06/13 06:17:00;;;;;;;10.53;5.07;;;13.60;1.00;;;;;;5051869;28;20493;-70
2022/06/13 06:19:26;;;;;;;7.67;4.73;;;13.50;1.00;;;;;;5034197;28;20205;-69
2022/06/13 06:21:52;;;;;;;12.03;5.27;;;13.70;1.00;;;;;;5052672;28;20182;-70
2022/06/13 06:24:18;;;;;;;6.13;4.50;;;13.80;1.00;;;;;;5052821;28;20574;-70
2022/06/13 06:26:44;;;;;;;9.97;5.43;;;13.90;1.00;;;;;;5050870;28;20946;-71
2022/06/13 06:29:11;;;;;;;14.03;4.87;;;13.90;1.00;;;;;;5051565;28;20186;-70
2022/06/13 06:31:37;;;;;;;9.27;5.10;;;14.00;1.00;;;;;;5034689;28;20205;-69
2022/06/13 06:34:02;;;;;;;8.53;4.47;;;14.10;1.00;;;;;;5052644;28;20436;-70
2022/06/13 06:36:29;;;;;;;7.57;4.70;;;14.10;1.00;;;;;;5051531;28;20819;-70
2022/06/13 06:38:55;;;;;;;8.30;4.20;;;14.00;1.00;;;;;;5052315;28;20536;-70
2022/06/13 06:41:21;;;;;;;13.23;4.60;;;14.10;1.00;;;;;;5034827;28;20409;-71
2022/06/13 06:43:47;;;;;;;7.07;5.00;;;14.00;1.00;;;;;;5051317;28;20456;-70
2022/06/13 06:46:16;;;;;;;10.40;4.30;;;14.00;1.00;;;;;;5052353;28;20894;-69
2022/06/13 06:48:41;;;;;;;22.40;5.43;;;14.10;1.00;;;;;;5033827;28;20450;-69
2022/06/13 06:51:09;;;;;;;13.13;6.60;;;14.20;1.00;;;;;;5052493;28;20449;-70
2022/06/13 07:01:48;;;;;;;12.70;5.30;;;14.60;1.00;;;;;;5052400;28;20404;-68
2022/06/13 07:04:14;;;;;;;11.50;6.23;;;14.60;1.00;;;;;;5034470;28;20413;-73
2022/06/13 07:06:40;;;;;;;8.13;4.77;;;14.70;1.00;;;;;;5033724;28;20615;-70
2022/06/13 07:09:06;;;;;;;11.40;5.00;;;14.80;1.00;;;;;;5053208;28;20187;-70
2022/06/13 07:14:18;;;;;;;4.60;3.47;;;15.20;1.00;;;;;;5054759;28;20397;-70
2022/06/13 07:16:44;;;;;;;4.10;3.10;;;15.20;99.90;;;;;;5054920;28;20418;-70
2022/06/13 07:19:10;;;;;;;5.90;3.77;;;15.10;99.90;;;;;;5055752;28;20179;-70
2022/06/13 07:21:36;;;;;;;8.30;3.70;;;15.00;99.90;;;;;;5055489;28;20435;-70
2022/06/13 07:24:01;;;;;;;15.27;4.17;;;15.00;99.90;;;;;;5055719;28;20402;-69
2022/06/13 07:26:27;;;;;;;8.10;3.70;;;15.10;99.90;;;;;;5055016;28;20159;-71
2022/06/13 07:28:53;;;;;;;10.13;3.33;;;15.20;99.90;;;;;;5036807;28;20202;-70
2022/06/13 07:31:22;;;;;;;14.03;3.90;;;15.40;99.90;;;;;;5054339;28;20202;-70
2022/06/13 07:33:49;;;;;;;8.40;3.60;;;15.60;99.90;;;;;;5055350;28;20187;-70
2022/06/13 07:36:16;;;;;;;14.77;5.00;;;15.70;99.90;;;;;;5037605;28;20418;-70
2022/06/13 07:38:42;;;;;;;8.97;3.57;;;15.60;99.90;;;;;;5054690;28;20420;-71
2022/06/13 07:41:12;;;;;;;7.80;3.63;;;15.60;99.90;;;;;;5055370;28;20401;-70
2022/06/13 07:43:38;;;;;;;5.10;2.53;;;15.60;99.90;;;;;;5037529;28;20445;-70
2022/06/13 07:46:05;;;;;;;7.00;3.00;;;15.70;99.90;;;;;;5037633;28;20840;-70
2022/06/13 07:48:32;;;;;;;7.40;3.10;;;15.60;99.90;;;;;;5051972;28;20293;-70
2022/06/13 07:50:59;;;;;;;7.00;2.77;;;15.60;99.90;;;;;;5055166;28;20890;-69
2022/06/13 07:53:25;;;;;;;4.67;3.00;;;15.60;99.90;;;;;;5055287;28;20402;-69
2022/06/13 07:55:51;;;;;;;4.17;3.60;;;15.50;99.90;;;;;;5055159;28;20400;-70
2022/06/13 07:58:25;;;;;;;6.33;2.50;;;15.40;99.90;;;;;;5054139;28;20417;-70
2022/06/13 08:00:51;;;;;;;8.13;3.97;;;15.40;99.90;;;;;;5055037;28;20408;-72
2022/06/13 08:03:27;;;;;;;2.83;2.43;;;15.30;99.90;;;;;;5054127;28;20433;-72
2022/06/13 08:05:53;;;;;;;8.37;2.60;;;15.20;99.90;;;;;;5053891;28;20476;-71
2022/06/13 08:08:20;;;;;;;13.40;3.77;;;15.00;99.90;;;;;;5052600;28;20453;-72
2022/06/13 08:10:49;;;;;;;5.47;2.90;;;14.80;99.90;;;;;;5054470;28;20821;-72
2022/06/13 08:13:17;;;;;;;2.30;2.10;;;14.70;99.90;;;;;;5053735;28;20986;-74
2022/06/13 08:15:44;;;;;;;4.60;2.13;;;14.60;99.90;;;;;;5036948;28;20486;-72
2022/06/13 08:18:13;;;;;;;4.07;2.73;;;14.40;99.90;;;;;;5053093;28;20452;-72
2022/06/13 08:20:42;;;;;;;3.57;2.30;;;14.40;99.90;;;;;;5054269;28;20424;-72
2022/06/13 08:23:10;;;;;;;3.27;2.77;;;14.50;99.90;;;;;;5054488;28;20394;-72
2022/06/13 08:25:37;;;;;;;4.33;2.00;;;14.80;99.90;;;;;;5052690;28;20398;-73
2022/06/13 08:28:04;;;;;;;2.93;2.10;;;15.00;99.90;;;;;;5033793;28;20406;-74
2022/06/13 08:30:56;;;;;;;1.97;1.87;;;14.90;99.90;;;;;;5034430;28;20446;-74
2022/06/13 08:33:23;;;;;;;2.90;1.70;;;14.90;99.90;;;;;;5034653;28;20485;-73
2022/06/13 08:35:49;;;;;;;2.20;1.30;;;14.70;99.90;;;;;;5034479;28;20398;-71
2022/06/13 08:38:16;;;;;;;1.27;1.17;;;14.70;99.90;;;;;;5033351;28;20414;-73
2022/06/13 08:41:00;;;;;;;2.80;2.07;;;14.60;99.90;;;;;;5041297;28;20810;-70
2022/06/13 08:43:44;;;;;;;1.90;1.60;;;14.30;99.90;;;;;;5053746;28;20390;-70
2022/06/13 08:46:36;;;;;;;3.00;1.60;;;14.10;99.90;;;;;;5054115;28;20397;-73
2022/06/13 08:49:31;;;;;;;3.43;1.90;;;13.80;99.90;;;;;;5053895;28;20449;-76
2022/06/13 08:52:12;;;;;;;2.60;1.50;;;13.60;99.90;;;;;;5054120;28;20419;-74
2022/06/13 08:54:41;;;;;;;1.97;1.40;;;13.20;99.90;;;;;;5052918;28;20425;-74
2022/06/13 08:57:11;;;;;;;2.17;1.70;;;12.90;99.90;;;;;;5053082;28;20372;-76
2022/06/13 08:59:55;;;;;;;3.13;1.57;;;12.60;99.90;;;;;;5053818;28;20918;-76
2022/06/13 09:02:23;;;;;;;2.43;1.30;;;12.50;99.90;;;;;;5053955;28;20390;-73
2022/06/13 09:04:58;;;;;;;3.37;1.53;;;12.40;99.90;;;;;;5052947;28;20721;-73
2022/06/13 09:07:42;;;;;;;1.70;1.60;;;12.30;99.90;;;;;;5053015;28;20397;-77
2022/06/13 09:10:17;;;;;;;1.83;1.70;;;12.20;99.90;;;;;;5052815;28;20453;-73
2022/06/13 09:12:55;;;;;;;1.80;1.70;;;12.30;99.90;;;;;;5053788;28;20380;-78
2022/06/13 09:15:33;;;;;;;1.80;1.70;;;12.40;99.90;;;;;;5053628;28;20764;-73
2022/06/13 09:18:23;;;;;;;1.83;1.67;;;12.50;1.00;;;;;;5052752;28;20401;-73
2022/06/13 09:21:21;;;;;;;2.07;1.57;;;12.70;1.00;;;;;;5052830;28;20392;-77
2022/06/13 09:24:08;;;;;;;3.13;1.53;;;13.00;1.00;;;;;;5034356;28;20996;-74
2022/06/13 09:26:47;;;;;;;9.60;1.97;;;13.30;1.00;;;;;;5051462;28;20444;-76
2022/06/13 09:29:16;;;;;;;2.90;1.60;;;13.40;1.00;;;;;;5053253;28;20425;-76
2022/06/13 09:31:44;;;;;;;1.60;1.50;;;13.40;1.00;;;;;;5052677;28;20969;-72
2022/06/13 09:34:39;;;;;;;1.50;1.40;;;13.40;1.00;;;;;;5053478;28;20492;-72
2022/06/13 09:37:16;;;;;;;3.50;1.67;;;13.40;1.00;;;;;;5048941;28;20440;-72
2022/06/13 09:39:42;;;;;;;1.60;1.50;;;13.30;1.00;;;;;;5053184;28;20433;-75
2022/06/13 09:42:29;;;;;;;3.20;1.80;;;13.30;1.00;;;;;;5052431;28;20813;-75
2022/06/13 09:45:15;;;;;;;2.30;1.50;;;13.30;1.00;;;;;;5035316;28;20413;-75
2022/06/13 09:47:59;;;;;;;1.80;1.70;;;13.30;1.00;;;;;;5052098;28;20384;-77
2022/06/13 09:50:46;;;;;;;1.73;1.43;;;13.20;1.00;;;;;;5052360;28;20918;-75
2022/06/13 09:53:16;;;;;;;7.40;1.83;;;13.10;1.00;;;;;;5033072;28;20441;-75
2022/06/13 09:56:00;;;;;;;6.53;2.40;;;12.90;1.00;;;;;;5033028;28;20402;-76
2022/06/13 09:59:15;;;;;;;3.27;2.40;;;12.90;1.00;;;;;;5031627;28;20450;-71
2022/06/13 10:01:47;;;;;;;2.03;1.93;;;12.90;1.00;;;;;;4952704;28;20396;-71
2022/06/13 10:04:29;;;;;;;2.03;1.90;;;12.90;1.00;;;;;;4953020;29;20383;-72
2022/06/13 10:07:13;;;;;;;3.50;2.37;;;13.10;1.00;;;;;;5020312;28;20440;-74
2022/06/13 10:10:04;;;;;;;3.60;2.43;;;13.20;1.00;;;;;;5051643;28;20540;-75
2022/06/13 10:12:38;;;;;;;5.10;2.20;;;13.40;1.00;;;;;;5052888;28;20407;-73
2022/06/13 10:15:30;;;;;;;2.47;2.27;;;13.70;1.00;;;;;;5052379;28;20450;-73
2022/06/13 10:18:19;;;;;;;3.67;1.90;;;14.00;1.00;;;;;;5051659;28;20846;-74
2022/06/13 10:20:55;;;;;;;2.00;1.90;;;14.20;1.00;;;;;;5051623;28;20922;-73
2022/06/13 10:24:04;;;;;;;2.33;1.90;;;14.30;1.00;;;;;;5052865;28;20432;-69
2022/06/13 10:26:44;;;;;;;1.80;1.70;;;14.80;1.00;;;;;;5051722;28;20489;-74
2022/06/13 10:29:28;;;;;;;1.83;1.73;;;15.70;1.00;;;;;;5052569;28;20918;-75
2022/06/13 10:31:56;;;;;;;1.83;1.60;;;15.90;1.00;;;;;;5052629;28;20470;-69
2022/06/13 10:34:59;;;;;;;3.93;1.40;;;16.20;1.00;;;;;;5051548;28;20425;-74
2022/06/13 10:37:52;;;;;;;1.53;1.30;;;16.20;1.00;;;;;;5033365;28;20914;-69
2022/06/13 10:40:18;;;;;;;1.43;1.27;;;16.10;1.00;;;;;;5052661;28;20389;-70
2022/06/13 10:42:45;;;;;;;1.40;1.00;;;15.80;1.00;;;;;;5053282;28;20405;-75
2022/06/13 10:45:14;;;;;;;1.60;1.30;;;15.70;1.00;;;;;;5056497;28;20439;-75
2022/06/13 10:47:47;;;;;;;2.00;1.90;;;16.10;1.00;;;;;;5054382;28;20425;-71
2022/06/13 10:50:28;;;;;;;1.50;1.40;;;16.70;1.00;;;;;;5055372;28;20467;-71
2022/06/13 10:53:00;;;;;;;1.80;1.70;;;17.40;1.00;;;;;;5038679;28;20409;-73
2022/06/13 10:55:30;;;;;;;1.97;1.10;;;18.10;1.00;;;;;;5038085;28;20412;-70
2022/06/13 10:58:05;;;;;;;1.40;1.00;;;18.10;99.90;;;;;;5054800;28;20401;-75
2022/06/13 11:00:31;;;;;;;2.27;1.23;;;18.30;99.90;;;;;;5056180;28;20477;-74
2022/06/13 11:03:15;;;;;;;2.43;1.33;;;18.30;99.90;;;;;;5054896;28;20436;-70
2022/06/13 11:05:54;;;;;;;2.80;1.50;;;17.80;99.90;;;;;;5056169;28;20166;-70
2022/06/13 11:08:21;;;;;;;3.13;1.10;;;18.20;99.90;;;;;;5055042;28;20422;-76
2022/06/13 11:11:04;;;;;;;3.27;1.50;;;19.00;99.90;;;;;;5055973;28;20453;-75
2022/06/13 11:13:36;;;;;;;1.67;1.37;;;19.40;99.90;;;;;;5055491;28;20389;-76
2022/06/13 11:25:01;;;;;;;2.07;1.17;;;17.30;99.90;;;;;;5056077;28;20400;-72
2022/06/13 11:27:41;;;;;;;3.67;1.40;;;16.70;99.90;;;;;;5054902;28;20413;-69
2022/06/13 11:30:26;;;;;;;5.53;1.80;;;16.30;99.90;;;;;;5053903;28;20457;-74
2022/06/13 11:33:23;;;;;;;2.53;1.50;;;15.90;99.90;;;;;;5055276;28;20385;-72
2022/06/13 11:36:00;;;;;;;3.93;3.63;;;15.80;99.90;;;;;;5048026;28;20409;-77
2022/06/13 11:38:32;;;;;;;4.07;1.80;;;16.80;99.90;;;;;;5054481;28;20405;-77
2022/06/13 11:41:15;;;;;;;1.93;1.83;;;17.50;99.90;;;;;;5055552;28;20396;-75
2022/06/13 11:43:41;;;;;;;2.60;1.80;;;17.80;99.90;;;;;;5054483;28;20452;-76
2022/06/13 11:46:12;;;;;;;4.53;1.63;;;17.60;99.90;;;;;;5055385;28;20724;-70
2022/06/13 11:48:47;;;;;;;2.43;1.40;;;17.40;99.90;;;;;;5053525;28;20214;-70
2022/06/13 11:51:21;;;;;;;3.63;2.40;;;17.10;99.90;;;;;;5055180;28;20448;-72
2022/06/13 11:53:46;;;;;;;2.43;2.03;;;17.10;99.90;;;;;;5054528;28;20903;-72
2022/06/13 11:56:23;;;;;;;1.90;1.80;;;17.10;99.90;;;;;;5054382;28;20539;-70
2022/06/13 11:58:51;;;;;;;3.30;1.70;;;17.50;99.90;;;;;;5053247;28;20460;-72
2022/06/13 12:01:34;;;;;;;6.60;2.40;;;17.60;99.90;;;;;;5037185;28;20414;-70
2022/06/13 12:04:02;;;;;;;3.93;1.90;;;17.50;99.90;;;;;;5055099;28;20405;-72
2022/06/13 12:06:39;;;;;;;1.83;1.73;;;17.30;99.90;;;;;;5052792;28;20465;-75
2022/06/13 12:09:23;;;;;;;3.33;1.87;;;17.10;99.90;;;;;;5052369;28;20456;-77
2022/06/13 12:11:58;;;;;;;1.93;1.77;;;17.00;99.90;;;;;;5054814;28;20487;-70
2022/06/13 12:14:28;;;;;;;2.33;1.60;;;16.80;99.90;;;;;;5054807;28;20401;-74
2022/06/13 12:17:01;;;;;;;4.10;1.93;;;16.60;99.90;;;;;;5053898;28;20507;-74
2022/06/13 12:19:36;;;;;;;3.43;1.63;;;16.40;99.90;;;;;;5054691;28;20930;-74
2022/06/13 12:22:09;;;;;;;2.97;1.90;;;16.60;99.90;;;;;;5054858;28;20405;-70
2022/06/13 12:24:57;;;;;;;1.57;1.47;;;18.10;99.90;;;;;;5053381;28;20778;-73
2022/06/13 12:27:48;;;;;;;3.30;1.73;;;20.00;99.90;;;;;;5052904;28;20406;-77
2022/06/13 12:30:38;;;;;;;1.50;1.13;;;20.70;99.90;;;;;;5054113;28;20479;-72
2022/06/13 12:33:10;;;;;;;2.53;1.40;;;20.10;99.90;;;;;;5053986;28;20409;-70
2022/06/13 12:35:50;;;;;;;4.07;1.50;;;19.50;99.90;;;;;;5054354;28;20401;-71
2022/06/13 12:39:02;;;;;;;2.53;1.20;;;20.00;99.90;;;;;;5034808;28;20469;-70
2022/06/13 12:41:42;;;;;;;1.70;1.20;;;20.90;99.90;;;;;;5034886;28;20425;-70
2022/06/13 12:44:39;;;;;;;4.27;1.33;;;21.40;99.90;;;;;;5053587;28;20393;-73
2022/06/13 12:47:39;;;;;;;2.10;0.87;;;21.90;99.90;;;;;;5053283;28;20744;-68
2022/06/13 12:50:32;;;;;;;2.40;1.00;;;21.90;99.90;;;;;;5050147;28;20512;-67
2022/06/13 12:53:11;;;;;;;3.20;0.80;;;21.60;99.90;;;;;;5053629;28;20424;-72
2022/06/13 12:56:04;;;;;;;2.30;0.70;;;21.60;99.90;;;;;;5054087;28;20389;-67
2022/06/13 12:58:48;;;;;;;0.97;0.70;;;21.60;99.90;;;;;;5053095;28;20425;-73
2022/06/13 13:01:21;;;;;;;1.40;1.00;;;21.80;99.90;;;;;;5053367;28;20778;-68
2022/06/13 13:03:53;;;;;;;3.10;1.67;;;21.50;99.90;;;;;;5052529;28;20425;-67
2022/06/13 13:06:39;;;;;;;1.70;0.93;;;21.10;99.90;;;;;;5052720;28;20459;-72
2022/06/13 13:09:27;;;;;;;1.70;1.00;;;21.70;99.90;;;;;;5045429;28;20445;-72
2022/06/13 13:12:27;;;;;;;1.27;0.83;;;22.60;99.90;;;;;;5053695;28;20455;-72
2022/06/13 13:15:12;;;;;;;1.40;1.07;;;23.00;99.90;;;;;;5053636;28;20437;-67
2022/06/13 13:17:45;;;;;;;6.83;1.10;;;21.70;99.90;;;;;;5051666;28;20421;-73
2022/06/13 13:20:27;;;;;;;1.37;0.80;;;22.20;99.90;;;;;;5036126;28;20471;-69
2022/06/13 13:23:30;;;;;;;2.60;0.70;;;23.40;99.90;;;;;;5052857;28;20419;-67
2022/06/13 13:26:14;;;;;;;6.33;2.70;;;23.80;97.20;;;;;;5053556;28;20413;-72
2022/06/13 13:29:16;;;;;;;2.07;1.00;;;24.50;97.40;;;;;;5052748;28;20432;-72
2022/06/13 13:31:54;;;;;;;0.90;0.60;;;24.50;93.10;;;;;;5052412;28;20460;-66
2022/06/13 13:34:36;;;;;;;1.53;0.90;;;23.80;83.40;;;;;;5052575;28;20397;-67
2022/06/13 13:37:20;;;;;;;2.00;0.97;;;23.00;76.80;;;;;;5052419;28;20409;-72
2022/06/13 13:39:49;;;;;;;3.93;1.10;;;21.50;70.80;;;;;;5052373;28;20421;-72
2022/06/13 13:42:34;;;;;;;3.67;0.93;;;20.70;69.90;;;;;;5053337;28;20410;-71
2022/06/13 13:45:21;;;;;;;5.13;2.03;;;20.10;70.90;;;;;;5051968;28;20433;-68
2022/06/13 13:47:53;;;;;;;1.40;1.17;;;19.90;77.30;;;;;;5038483;28;20456;-69
2022/06/13 13:50:24;;;;;;;4.00;1.37;;;19.70;75.90;;;;;;5052990;28;20505;-72
2022/06/13 13:52:54;;;;;;;1.80;1.20;;;19.60;85.20;;;;;;5035557;28;20416;-67
2022/06/13 13:55:29;;;;;;;1.30;0.90;;;19.30;83.50;;;;;;5035118;28;20905;-65